createdAt,value
2022-10-02T00:01:33.090Z,46.96
2022-10-02T00:04:02.414Z,46.55
2022-10-02T00:06:43.168Z,47.74
2022-10-02T00:09:20.123Z,47.47
2022-10-02T00:11:51.364Z,47.08
2022-10-02T00:14:23.540Z,47.59
2022-10-02T00:16:54.855Z,47.39
2022-10-02T00:19:22.706Z,47.05
2022-10-02T00:22:02.662Z,47.99
2022-10-02T00:24:39.693Z,48.52
2022-10-02T00:27:18.389Z,48.29
2022-10-02T00:29:50.659Z,48.02
2022-10-02T00:32:30.040Z,48.33
2022-10-02T00:35:24.098Z,48.64
2022-10-02T00:37:59.214Z,48.42
2022-10-02T00:41:08.338Z,48.83
2022-10-02T00:43:44.278Z,48.20
2022-10-02T00:46:29.230Z,49.27
2022-10-02T00:49:10.482Z,48.74
2022-10-02T00:51:51.520Z,48.91
2022-10-02T00:54:47.230Z,49.13
2022-10-02T00:57:28.905Z,49.11
2022-10-02T01:00:05.749Z,49.54
2022-10-02T01:02:52.349Z,49.83
2022-10-02T01:05:21.312Z,48.91
2022-10-02T01:07:53.870Z,48.92
2022-10-02T01:10:25.740Z,49.08
2022-10-02T01:12:56.968Z,49.33
2022-10-02T01:15:31.554Z,49.54
2022-10-02T01:18:02.050Z,49.34
2022-10-02T01:20:37.443Z,49.62
2022-10-02T01:23:28.954Z,49.92
2022-10-02T01:25:59.161Z,49.32
2022-10-02T01:28:27.673Z,48.93
2022-10-02T01:31:00.741Z,49.40
2022-10-02T01:33:28.698Z,49.49
2022-10-02T01:35:56.837Z,49.66
2022-10-02T01:38:25.724Z,49.29
2022-10-02T01:40:53.797Z,49.74
2022-10-02T01:43:26.779Z,50.03
2022-10-02T01:46:16.449Z,50.47
2022-10-02T01:48:48.328Z,50.31
2022-10-02T01:51:50.330Z,50.42
2022-10-02T01:54:25.701Z,50.00
2022-10-02T01:57:04.035Z,50.18
2022-10-02T01:59:47.067Z,50.49
2022-10-02T02:02:19.037Z,50.34
2022-10-02T02:04:54.982Z,50.41
2022-10-02T02:07:38.893Z,50.45
2022-10-02T02:10:42.911Z,50.12
2022-10-02T02:13:15.609Z,50.33
2022-10-02T02:15:48.997Z,50.85
2022-10-02T02:18:22.258Z,50.56
2022-10-02T02:21:03.218Z,50.22
2022-10-02T02:23:35.202Z,50.34
2022-10-02T02:26:06.718Z,49.54
2022-10-02T02:28:37.438Z,50.12
2022-10-02T02:31:09.875Z,50.05
2022-10-02T02:33:42.157Z,50.12
2022-10-02T02:36:15.651Z,49.93
2022-10-02T02:38:47.586Z,49.98
2022-10-02T02:41:18.037Z,49.92
2022-10-02T02:43:49.897Z,50.22
2022-10-02T02:46:24.306Z,50.88
2022-10-02T02:48:56.209Z,50.31
2022-10-02T02:51:31.894Z,50.17
2022-10-02T02:54:04.912Z,50.70
2022-10-02T02:56:34.458Z,50.30
2022-10-02T02:59:06.768Z,50.02
2022-10-02T03:01:36.053Z,50.19
2022-10-02T03:04:04.044Z,50.21
2022-10-02T03:06:35.579Z,50.62
2022-10-02T03:09:06.448Z,50.49
2022-10-02T03:11:49.138Z,50.82
2022-10-02T03:14:43.385Z,51.29
2022-10-02T03:17:23.875Z,50.89
2022-10-02T03:19:58.162Z,50.55
2022-10-02T03:22:35.534Z,50.54
2022-10-02T03:25:09.632Z,51.35
2022-10-02T03:27:43.636Z,50.81
2022-10-02T03:30:14.036Z,50.45
2022-10-02T03:32:46.648Z,50.79
2022-10-02T03:35:16.149Z,50.91
2022-10-02T03:37:48.091Z,50.68
2022-10-02T03:40:16.081Z,50.53
2022-10-02T03:42:43.864Z,50.65
2022-10-02T03:45:23.066Z,50.74
2022-10-02T03:48:01.427Z,50.59
2022-10-02T03:50:32.828Z,50.18
2022-10-02T03:53:08.071Z,50.50
2022-10-02T03:55:39.781Z,50.76
2022-10-02T03:58:14.854Z,51.15
2022-10-02T04:00:51.046Z,50.85
2022-10-02T04:03:27.147Z,50.86
2022-10-02T04:06:01.198Z,51.20
2022-10-02T04:08:33.446Z,50.94
2022-10-02T04:11:07.930Z,51.02
2022-10-02T04:13:40.889Z,51.25
2022-10-02T04:16:14.590Z,51.57
2022-10-02T04:18:52.917Z,51.47
2022-10-02T04:21:30.623Z,51.25
2022-10-02T04:24:06.909Z,51.28
2022-10-02T04:26:38.572Z,50.93
2022-10-02T04:29:16.427Z,51.71
2022-10-02T04:31:45.590Z,50.83
2022-10-02T04:34:15.118Z,51.40
2022-10-02T04:36:59.630Z,52.07
2022-10-02T04:39:55.219Z,52.26
2022-10-02T04:42:35.936Z,52.13
2022-10-02T04:45:17.741Z,52.00
2022-10-02T04:48:15.714Z,52.42
2022-10-02T04:50:52.762Z,52.35
2022-10-02T04:53:38.573Z,52.49
2022-10-02T04:56:37.095Z,52.53
2022-10-02T04:59:15.041Z,51.93
2022-10-02T05:01:59.574Z,52.25
2022-10-02T05:04:47.722Z,52.75
2022-10-02T05:07:36.358Z,52.39
2022-10-02T05:10:19.628Z,52.54
2022-10-02T05:13:00.254Z,52.77
2022-10-02T05:15:41.126Z,52.83
2022-10-02T05:18:24.057Z,52.31
2022-10-02T05:20:57.871Z,53.09
2022-10-02T05:23:41.369Z,52.69
2022-10-02T05:26:42.863Z,53.05
2022-10-02T05:29:32.353Z,53.01
2022-10-02T05:32:17.096Z,52.65
2022-10-02T05:35:01.445Z,52.55
2022-10-02T05:37:43.581Z,52.74
2022-10-02T05:40:21.394Z,53.02
2022-10-02T05:42:59.477Z,53.03
2022-10-02T05:45:30.244Z,52.16
2022-10-02T05:48:07.293Z,53.29
2022-10-02T05:50:37.530Z,52.69
2022-10-02T05:53:12.077Z,53.02
2022-10-02T05:55:47.811Z,53.26
2022-10-02T05:58:20.969Z,52.54
2022-10-02T06:00:58.148Z,52.67
2022-10-02T06:03:32.238Z,52.78
2022-10-02T06:06:03.608Z,52.96
2022-10-02T06:08:35.829Z,52.68
2022-10-02T06:11:11.491Z,53.01
2022-10-02T06:13:46.266Z,53.33
2022-10-02T06:16:21.144Z,53.21
2022-10-02T06:18:54.224Z,52.48
2022-10-02T06:21:32.268Z,53.16
2022-10-02T06:24:06.054Z,53.28
2022-10-02T06:26:43.089Z,53.54
2022-10-02T06:29:19.895Z,53.06
2022-10-02T06:32:03.281Z,53.23
2022-10-02T06:34:31.247Z,52.63
2022-10-02T06:37:26.952Z,53.87
2022-10-02T06:40:14.134Z,53.24
2022-10-02T06:42:52.742Z,53.75
2022-10-02T06:45:27.733Z,53.32
2022-10-02T06:48:06.655Z,53.66
2022-10-02T06:50:44.494Z,53.97
2022-10-02T06:53:34.220Z,53.88
2022-10-02T06:56:16.320Z,53.35
2022-10-02T06:59:04.633Z,53.88
2022-10-02T07:01:44.480Z,53.68
2022-10-02T07:04:26.483Z,53.23
2022-10-02T07:07:05.926Z,53.29
2022-10-02T07:09:44.179Z,53.28
2022-10-02T07:12:27.845Z,53.91
2022-10-02T07:15:11.585Z,53.59
2022-10-02T07:17:53.437Z,53.46
2022-10-02T07:20:32.188Z,53.19
2022-10-02T07:23:14.930Z,53.06
2022-10-02T07:25:58.183Z,53.97
2022-10-02T07:28:34.524Z,53.85
2022-10-02T07:31:12.042Z,53.66
2022-10-02T07:33:54.085Z,53.25
2022-10-02T07:36:31.338Z,53.36
2022-10-02T07:39:10.064Z,53.08
2022-10-02T07:42:00.369Z,53.34
2022-10-02T07:44:44.537Z,53.33
2022-10-02T07:47:23.836Z,53.47
2022-10-02T07:49:57.303Z,52.96
2022-10-02T07:52:37.465Z,52.80
2022-10-02T07:55:16.873Z,53.26
2022-10-02T07:57:53.877Z,52.60
2022-10-02T08:00:25.612Z,53.20
2022-10-02T08:02:59.755Z,53.23
2022-10-02T08:05:31.230Z,53.26
2022-10-02T08:08:03.517Z,53.08
2022-10-02T08:10:37.784Z,53.18
2022-10-02T08:13:12.095Z,52.93
2022-10-02T08:15:43.401Z,53.13
2022-10-02T08:18:33.586Z,52.93
2022-10-02T08:21:04.150Z,52.91
2022-10-02T08:23:38.675Z,53.20
2022-10-02T08:26:12.628Z,52.91
2022-10-02T08:28:45.652Z,53.17
2022-10-02T08:31:16.188Z,52.95
2022-10-02T08:33:45.457Z,53.35
2022-10-02T08:36:36.911Z,53.76
2022-10-02T08:39:20.486Z,53.31
2022-10-02T08:42:18.435Z,52.98
2022-10-02T08:45:39.162Z,53.38
2022-10-02T08:48:44.259Z,53.12
2022-10-02T08:51:47.270Z,52.88
2022-10-02T08:54:52.208Z,52.68
2022-10-02T08:57:38.874Z,52.33
2022-10-02T09:00:20.702Z,52.88
2022-10-02T09:03:45.773Z,52.50
2022-10-02T09:07:07.630Z,52.41
2022-10-02T09:10:27.017Z,52.48
2022-10-02T09:13:15.807Z,52.92
2022-10-02T09:15:49.124Z,52.25
2022-10-02T09:18:19.715Z,52.33
2022-10-02T09:21:29.114Z,52.35
2022-10-02T09:24:35.647Z,52.76
2022-10-02T09:27:33.416Z,52.53
2022-10-02T09:30:28.014Z,52.41
2022-10-02T09:33:30.058Z,52.47
2022-10-02T09:36:49.359Z,52.42
2022-10-02T09:39:56.001Z,52.92
2022-10-02T09:43:00.134Z,53.13
2022-10-02T09:46:16.081Z,52.73
2022-10-02T09:49:16.933Z,52.87
2022-10-02T09:52:23.246Z,52.96
2022-10-02T09:55:35.323Z,52.90
2022-10-02T09:58:37.661Z,52.95
2022-10-02T10:01:31.018Z,52.67
2022-10-02T10:05:01.337Z,52.51
2022-10-02T10:07:58.835Z,52.71
2022-10-02T10:10:51.031Z,52.75
2022-10-02T10:14:09.567Z,52.27
2022-10-02T10:17:22.369Z,52.30
2022-10-02T10:20:24.286Z,51.61
2022-10-02T10:23:08.027Z,51.83
2022-10-02T10:26:15.159Z,51.40
2022-10-02T10:29:16.954Z,51.46
2022-10-02T10:32:27.736Z,51.83
2022-10-02T10:35:37.568Z,52.09
2022-10-02T10:38:33.387Z,52.00
2022-10-02T10:41:51.028Z,52.24
2022-10-02T10:44:40.998Z,52.33
2022-10-02T10:47:28.786Z,51.61
2022-10-02T10:50:19.185Z,51.90
2022-10-02T10:53:11.668Z,51.38
2022-10-02T10:55:59.302Z,51.56
2022-10-02T10:58:44.620Z,51.46
2022-10-02T11:01:18.721Z,51.66
2022-10-02T11:04:19.430Z,51.84
2022-10-02T11:07:08.734Z,51.73
2022-10-02T11:09:57.585Z,50.99
2022-10-02T11:13:01.010Z,50.84
2022-10-02T11:16:07.475Z,50.73
2022-10-02T11:19:02.127Z,49.93
2022-10-02T11:21:56.433Z,50.03
2022-10-02T11:25:01.956Z,49.91
2022-10-02T11:28:06.194Z,49.58
2022-10-02T11:30:49.143Z,49.26
2022-10-02T11:33:23.133Z,49.98
2022-10-02T11:36:08.805Z,48.67
2022-10-02T11:39:08.080Z,48.19
2022-10-02T11:42:27.493Z,48.04
2022-10-02T11:45:21.086Z,47.97
2022-10-02T11:48:14.471Z,47.47
2022-10-02T11:51:02.786Z,47.51
2022-10-02T11:53:53.888Z,47.39
2022-10-02T11:56:36.455Z,47.00
2022-10-02T11:59:28.354Z,46.76
2022-10-02T12:02:02.912Z,47.64
2022-10-02T12:04:41.967Z,47.25
2022-10-02T12:07:22.200Z,46.64
2022-10-02T12:10:07.799Z,46.87
2022-10-02T12:12:51.457Z,46.21
2022-10-02T12:15:31.684Z,45.90
2022-10-02T12:18:19.453Z,45.66
2022-10-02T12:21:28.969Z,45.34
2022-10-02T12:24:20.265Z,46.15
2022-10-02T12:27:04.547Z,44.96
2022-10-02T12:29:43.683Z,44.18
2022-10-02T12:32:24.190Z,43.93
2022-10-02T12:35:03.681Z,44.26
2022-10-02T12:37:37.167Z,44.62
2022-10-02T12:40:18.285Z,44.28
2022-10-02T12:43:18.185Z,43.73
2022-10-02T12:46:21.087Z,43.98
2022-10-02T12:49:22.073Z,44.18
2022-10-02T12:52:07.025Z,43.82
2022-10-02T12:54:59.259Z,43.43
2022-10-02T12:57:55.856Z,43.89
2022-10-02T13:00:26.214Z,44.52
2022-10-02T13:03:46.937Z,43.44
2022-10-02T13:06:37.238Z,42.09
2022-10-02T13:09:20.611Z,42.86
2022-10-02T13:12:09.549Z,42.35
2022-10-02T13:14:56.380Z,41.68
2022-10-02T13:17:38.318Z,41.37
2022-10-02T13:20:18.584Z,41.70
2022-10-02T13:22:58.160Z,41.42
2022-10-02T13:25:39.887Z,40.92
2022-10-02T13:28:22.602Z,40.88
2022-10-02T13:31:02.543Z,41.07
2022-10-02T13:33:50.111Z,41.35
2022-10-02T13:36:25.885Z,41.62
2022-10-02T13:39:18.134Z,41.21
2022-10-02T13:42:00.364Z,41.17
2022-10-02T13:44:40.090Z,41.21
2022-10-02T13:47:38.520Z,40.69
2022-10-02T13:50:26.697Z,40.74
2022-10-02T13:53:09.913Z,40.81
2022-10-02T13:55:46.385Z,40.88
2022-10-02T13:58:38.263Z,40.56
2022-10-02T14:01:19.735Z,40.25
2022-10-02T14:04:10.817Z,40.26
2022-10-02T14:06:42.625Z,40.58
2022-10-02T14:09:26.675Z,40.29
2022-10-02T14:12:20.813Z,39.50
2022-10-02T14:15:12.365Z,39.79
2022-10-02T14:17:53.656Z,39.77
2022-10-02T14:20:34.364Z,40.00
2022-10-02T14:23:23.702Z,39.87
2022-10-02T14:26:01.706Z,40.10
2022-10-02T14:29:08.763Z,40.28
2022-10-02T14:31:55.607Z,40.07
2022-10-02T14:34:59.235Z,40.26
2022-10-02T14:37:44.506Z,40.34
2022-10-02T14:40:15.419Z,40.87
2022-10-02T14:42:59.631Z,40.01
2022-10-02T14:45:50.958Z,40.03
2022-10-02T14:48:30.623Z,39.97
2022-10-02T14:51:19.157Z,39.93
2022-10-02T14:54:01.502Z,40.66
2022-10-02T14:56:51.081Z,40.38
2022-10-02T14:59:33.372Z,40.75
2022-10-02T15:02:24.605Z,40.23
2022-10-02T15:05:03.582Z,40.63
2022-10-02T15:07:35.735Z,40.74
2022-10-02T15:10:15.221Z,40.56
2022-10-02T15:12:55.672Z,40.07
2022-10-02T15:15:33.764Z,40.59
2022-10-02T15:18:21.179Z,40.09
2022-10-02T15:20:59.292Z,40.60
2022-10-02T15:23:43.335Z,40.15
2022-10-02T15:26:26.529Z,40.87
2022-10-02T15:29:07.570Z,40.81
2022-10-02T15:31:44.150Z,40.83
2022-10-02T15:34:25.696Z,41.12
2022-10-02T15:37:13.682Z,41.17
2022-10-02T15:40:05.159Z,41.30
2022-10-02T15:42:49.911Z,41.33
2022-10-02T15:45:27.657Z,41.55
2022-10-02T15:48:22.401Z,41.24
2022-10-02T15:50:59.935Z,41.59
2022-10-02T15:53:38.631Z,41.22
2022-10-02T15:56:26.628Z,41.28
2022-10-02T15:59:11.634Z,41.04
2022-10-02T16:01:51.574Z,41.33
2022-10-02T16:04:30.849Z,40.67
2022-10-02T16:07:36.879Z,40.29
2022-10-02T16:10:18.355Z,40.36
2022-10-02T16:13:18.570Z,40.02
2022-10-02T16:15:52.690Z,40.69
2022-10-02T16:18:37.467Z,40.52
2022-10-02T16:21:39.216Z,40.58
2022-10-02T16:24:27.257Z,39.98
2022-10-02T16:27:19.224Z,40.29
2022-10-02T16:30:02.750Z,40.32
2022-10-02T16:32:39.511Z,40.47
2022-10-02T16:35:25.113Z,40.27
2022-10-02T16:38:01.886Z,39.97
2022-10-02T16:40:40.421Z,40.57
2022-10-02T16:43:45.906Z,40.27
2022-10-02T16:46:17.739Z,40.34
2022-10-02T16:48:52.947Z,40.11
2022-10-02T16:51:40.356Z,40.46
2022-10-02T16:54:18.451Z,40.16
2022-10-02T16:56:53.642Z,40.68
2022-10-02T16:59:26.522Z,40.82
2022-10-02T17:02:16.957Z,40.61
2022-10-02T17:04:56.622Z,40.57
2022-10-02T17:07:33.699Z,40.39
2022-10-02T17:10:07.637Z,40.41
2022-10-02T17:12:52.670Z,40.05
2022-10-02T17:15:26.494Z,40.62
2022-10-02T17:18:06.347Z,40.39
2022-10-02T17:20:41.742Z,40.24
2022-10-02T17:23:17.714Z,40.43
2022-10-02T17:25:54.798Z,40.35
2022-10-02T17:28:31.500Z,40.39
2022-10-02T17:31:24.231Z,39.85
2022-10-02T17:33:55.706Z,40.53
2022-10-02T17:36:32.704Z,39.90
2022-10-02T17:39:20.240Z,39.70
2022-10-02T17:41:54.201Z,40.15
2022-10-02T17:44:39.827Z,40.35
2022-10-02T17:47:45.246Z,39.86
2022-10-02T17:50:21.231Z,41.06
2022-10-02T17:53:17.269Z,40.69
2022-10-02T17:56:26.618Z,40.07
2022-10-02T17:59:08.371Z,40.05
2022-10-02T18:01:45.132Z,40.18
2022-10-02T18:04:23.201Z,40.56
2022-10-02T18:07:03.365Z,40.31
2022-10-02T18:09:51.117Z,39.98
2022-10-02T18:12:42.538Z,40.10
2022-10-02T18:18:01.893Z,39.89
2022-10-02T18:20:35.657Z,40.35
2022-10-02T18:23:18.606Z,40.30
2022-10-02T18:25:53.139Z,41.27
2022-10-02T18:28:37.450Z,40.63
2022-10-02T18:31:44.157Z,40.16
2022-10-02T18:34:42.766Z,40.54
2022-10-02T18:37:25.401Z,40.31
2022-10-02T18:40:10.181Z,40.77
2022-10-02T18:42:51.626Z,40.49
2022-10-02T18:45:34.533Z,40.55
2022-10-02T18:48:10.693Z,41.47
2022-10-02T18:51:01.777Z,40.84
2022-10-02T18:54:01.317Z,40.71
2022-10-02T18:56:51.596Z,40.39
2022-10-02T18:59:30.042Z,40.41
2022-10-02T19:02:13.070Z,41.05
2022-10-02T19:05:04.674Z,41.06
2022-10-02T19:07:42.553Z,40.59
2022-10-02T19:10:26.169Z,41.00
2022-10-02T19:12:57.510Z,41.20
2022-10-02T19:15:28.415Z,40.87
2022-10-02T19:18:03.707Z,40.95
2022-10-02T19:20:45.012Z,40.81
2022-10-02T19:23:23.405Z,40.87
2022-10-02T19:25:53.384Z,40.91
2022-10-02T19:28:25.511Z,41.51
2022-10-02T19:30:57.410Z,40.89
2022-10-02T19:33:34.545Z,41.50
2022-10-02T19:36:05.152Z,41.60
2022-10-02T19:38:37.650Z,41.09
2022-10-02T19:41:10.584Z,41.64
2022-10-02T19:43:48.811Z,41.00
2022-10-02T19:46:19.853Z,41.35
2022-10-02T19:48:55.717Z,41.57
2022-10-02T19:51:23.716Z,41.45
2022-10-02T19:53:57.630Z,41.75
2022-10-02T19:56:31.913Z,41.89
2022-10-02T19:59:06.865Z,42.05
2022-10-02T20:01:43.492Z,41.33
2022-10-02T20:04:18.245Z,41.82
2022-10-02T20:06:52.941Z,41.89
2022-10-02T20:09:28.460Z,41.98
2022-10-02T20:12:01.058Z,41.62
2022-10-02T20:14:33.148Z,42.06
2022-10-02T20:17:09.167Z,41.78
2022-10-02T20:19:42.292Z,41.82
2022-10-02T20:22:23.909Z,41.82
2022-10-02T20:24:58.334Z,42.47
2022-10-02T20:27:36.212Z,42.41
2022-10-02T20:30:08.160Z,42.01
2022-10-02T20:32:41.942Z,42.01
2022-10-02T20:35:16.298Z,42.31
2022-10-02T20:37:46.609Z,41.94
2022-10-02T20:40:19.519Z,42.04
2022-10-02T20:42:57.673Z,42.32
2022-10-02T20:45:33.890Z,42.08
2022-10-02T20:49:06.989Z,42.27
2022-10-02T20:54:49.915Z,41.95
2022-10-02T20:58:06.065Z,42.34
2022-10-02T21:00:50.170Z,42.57
2022-10-02T21:03:38.195Z,42.09
2022-10-02T21:06:35.586Z,42.07
2022-10-02T21:09:46.545Z,42.57
2022-10-02T21:12:58.343Z,42.31
2022-10-02T21:15:55.287Z,42.71
2022-10-02T21:18:39.510Z,42.84
2022-10-02T21:21:36.024Z,42.41
2022-10-02T21:24:35.933Z,42.21
2022-10-02T21:27:21.646Z,42.46
2022-10-02T21:30:11.018Z,42.53
2022-10-02T21:32:57.828Z,42.43
2022-10-02T21:35:53.269Z,42.91
2022-10-02T21:39:07.240Z,42.87
2022-10-02T21:42:19.287Z,42.57
2022-10-02T21:45:13.850Z,42.61
2022-10-02T21:48:04.526Z,42.87
2022-10-02T21:51:23.236Z,42.81
2022-10-02T21:54:20.756Z,43.02
2022-10-02T21:57:28.965Z,42.70
2022-10-02T22:00:08.588Z,43.09
2022-10-02T22:03:11.460Z,43.15
2022-10-02T22:06:05.308Z,43.23
2022-10-02T22:08:45.200Z,43.13
2022-10-02T22:11:22.679Z,42.90
2022-10-02T22:13:54.858Z,42.65
2022-10-02T22:16:36.550Z,43.34
2022-10-02T22:19:15.595Z,43.02
2022-10-02T22:21:58.307Z,43.21
2022-10-02T22:24:49.323Z,43.35
2022-10-02T22:27:37.559Z,43.34
2022-10-02T22:30:06.321Z,42.98
2022-10-02T22:33:11.908Z,43.46
2022-10-02T22:36:17.639Z,43.49
2022-10-02T22:38:49.330Z,43.44
2022-10-02T22:41:27.573Z,43.09
2022-10-02T22:43:58.273Z,43.03
2022-10-02T22:46:41.195Z,43.63
2022-10-02T22:49:22.933Z,43.66
2022-10-02T22:52:00.639Z,43.28
2022-10-02T22:54:39.128Z,43.40
2022-10-02T22:57:15.391Z,43.48
2022-10-02T22:59:49.030Z,43.60
2022-10-02T23:02:23.938Z,43.18
2022-10-02T23:04:57.706Z,43.67
2022-10-02T23:07:34.889Z,43.30
2022-10-02T23:10:08.329Z,43.34
2022-10-02T23:12:40.260Z,43.59
2022-10-02T23:15:30.374Z,43.96
2022-10-02T23:18:02.597Z,43.47
2022-10-02T23:20:36.128Z,43.86
2022-10-02T23:23:14.793Z,44.00
2022-10-02T23:25:47.241Z,43.90
2022-10-02T23:28:20.964Z,43.49
2022-10-02T23:30:53.739Z,43.98
2022-10-02T23:33:26.197Z,43.79
2022-10-02T23:35:59.732Z,43.99
2022-10-02T23:38:39.088Z,43.83
2022-10-02T23:41:29.870Z,43.99
2022-10-02T23:44:11.092Z,44.30
2022-10-02T23:47:02.611Z,43.88
2022-10-02T23:49:36.124Z,44.18
2022-10-02T23:52:20.420Z,43.94
2022-10-02T23:55:05.782Z,43.80
2022-10-02T23:57:55.816Z,44.13
